createdAt,value
2023-06-09T00:00:11.269Z,100545.00
2023-06-09T00:02:38.301Z,100559.00
2023-06-09T00:05:05.477Z,100554.00
2023-06-09T00:07:34.561Z,100552.00
2023-06-09T00:10:01.180Z,100554.00
2023-06-09T00:12:27.780Z,100555.00
2023-06-09T00:14:54.355Z,100550.00
2023-06-09T00:17:21.080Z,100550.00
2023-06-09T00:19:48.134Z,100551.00
2023-06-09T00:22:15.410Z,100558.00
2023-06-09T00:24:42.181Z,100550.00
2023-06-09T00:27:09.964Z,100555.00
2023-06-09T00:29:36.830Z,100552.00
2023-06-09T00:32:04.117Z,100544.00
2023-06-09T00:34:30.996Z,100548.00
2023-06-09T00:36:57.618Z,100545.00
2023-06-09T00:39:24.326Z,100540.00
2023-06-09T00:41:51.000Z,100543.00
2023-06-09T00:44:17.565Z,100545.00
2023-06-09T00:46:44.323Z,100545.00
2023-06-09T00:49:10.965Z,100529.00
2023-06-09T00:51:38.081Z,100532.00
2023-06-09T00:54:05.363Z,100542.00
2023-06-09T00:56:35.630Z,100539.00
2023-06-09T00:59:02.320Z,100538.00
2023-06-09T01:01:34.026Z,100541.00
2023-06-09T01:04:01.378Z,100537.00
2023-06-09T01:06:41.071Z,100542.00
2023-06-09T01:09:20.733Z,100537.00
2023-06-09T01:12:06.679Z,100537.00
2023-06-09T01:14:39.527Z,100544.00
2023-06-09T01:17:14.998Z,100541.00
2023-06-09T01:19:47.674Z,100538.00
2023-06-09T01:22:32.765Z,100539.00
2023-06-09T01:25:06.053Z,100544.00
2023-06-09T01:27:37.456Z,100541.00
2023-06-09T01:30:06.001Z,100541.00
2023-06-09T01:32:32.962Z,100541.00
2023-06-09T01:34:59.588Z,100537.00
2023-06-09T01:37:26.421Z,100537.00
2023-06-09T01:39:53.251Z,100544.00
2023-06-09T01:42:19.798Z,100537.00
2023-06-09T01:44:46.335Z,100532.00
2023-06-09T01:47:13.546Z,100532.00
2023-06-09T01:49:55.317Z,100536.00
2023-06-09T01:52:28.225Z,100543.00
2023-06-09T01:55:04.445Z,100537.00
2023-06-09T01:57:42.334Z,100534.00
2023-06-09T02:00:10.110Z,100532.00
2023-06-09T02:02:43.709Z,100536.00
2023-06-09T02:05:11.466Z,100530.00
2023-06-09T02:07:40.985Z,100534.00
2023-06-09T02:10:09.116Z,100530.00
2023-06-09T02:12:35.708Z,100533.00
2023-06-09T02:15:04.395Z,100532.00
2023-06-09T02:17:31.714Z,100535.00
2023-06-09T02:19:59.101Z,100539.00
2023-06-09T02:22:25.917Z,100532.00
2023-06-09T02:24:52.481Z,100535.00
2023-06-09T02:27:19.117Z,100535.00
2023-06-09T02:29:45.825Z,100531.00
2023-06-09T02:32:12.925Z,100543.00
2023-06-09T02:34:39.596Z,100532.00
2023-06-09T02:37:08.395Z,100535.00
2023-06-09T02:39:36.037Z,100543.00
2023-06-09T02:42:03.650Z,100528.00
2023-06-09T02:44:33.222Z,100543.00
2023-06-09T02:47:00.995Z,100540.00
2023-06-09T02:49:28.611Z,100535.00
2023-06-09T02:51:55.609Z,100534.00
2023-06-09T02:54:23.483Z,100546.00
2023-06-09T02:56:50.411Z,100538.00
2023-06-09T02:59:17.151Z,100538.00
2023-06-09T03:01:44.420Z,100545.00
2023-06-09T03:04:13.229Z,100543.00
2023-06-09T03:06:44.816Z,100547.00
2023-06-09T03:09:16.206Z,100547.00
2023-06-09T03:11:47.625Z,100540.00
2023-06-09T03:14:15.352Z,100546.00
2023-06-09T03:16:42.148Z,100546.00
2023-06-09T03:19:08.870Z,100549.00
2023-06-09T03:21:36.791Z,100544.00
2023-06-09T03:24:05.724Z,100550.00
2023-06-09T03:26:33.182Z,100551.00
2023-06-09T03:29:00.054Z,100554.00
2023-06-09T03:31:27.918Z,100547.00
2023-06-09T03:33:55.024Z,100553.00
2023-06-09T03:36:22.619Z,100552.00
2023-06-09T03:38:49.564Z,100559.00
2023-06-09T03:41:16.270Z,100552.00
2023-06-09T03:43:42.962Z,100559.00
2023-06-09T03:46:09.702Z,100553.00
2023-06-09T03:48:37.280Z,100560.00
2023-06-09T03:51:04.738Z,100558.00
2023-06-09T03:53:31.418Z,100557.00
2023-06-09T03:56:00.279Z,100554.00
2023-06-09T03:58:27.630Z,100557.00
2023-06-09T04:00:54.590Z,100553.00
2023-06-09T04:03:23.514Z,100561.00
2023-06-09T04:05:50.444Z,100556.00
2023-06-09T04:08:17.366Z,100557.00
2023-06-09T04:10:44.172Z,100552.00
2023-06-09T04:13:11.672Z,100548.00
2023-06-09T04:15:38.601Z,100556.00
2023-06-09T04:18:09.377Z,100554.00
2023-06-09T04:20:36.951Z,100549.00
2023-06-09T04:23:04.528Z,100547.00
2023-06-09T04:25:35.811Z,100541.00
2023-06-09T04:28:09.921Z,100545.00
2023-06-09T04:30:39.200Z,100540.00
2023-06-09T04:33:09.033Z,100543.00
2023-06-09T04:35:37.024Z,100542.00
2023-06-09T04:38:05.329Z,100546.00
2023-06-09T04:40:34.042Z,100541.00
2023-06-09T04:43:03.701Z,100545.00
2023-06-09T04:45:36.380Z,100550.00
2023-06-09T04:48:13.839Z,100549.00
2023-06-09T04:50:40.701Z,100543.00
2023-06-09T04:53:11.069Z,100543.00
2023-06-09T04:55:42.950Z,100546.00
2023-06-09T04:58:10.677Z,100548.00
2023-06-09T05:00:38.399Z,100545.00
2023-06-09T05:03:05.417Z,100547.00
2023-06-09T05:05:32.948Z,100555.00
2023-06-09T05:08:01.030Z,100556.00
2023-06-09T05:10:33.412Z,100548.00
2023-06-09T05:13:00.411Z,100553.00
2023-06-09T05:15:28.840Z,100556.00
2023-06-09T05:17:56.626Z,100563.00
2023-06-09T05:20:24.626Z,100564.00
2023-06-09T05:22:51.304Z,100559.00
2023-06-09T05:25:19.919Z,100565.00
2023-06-09T05:27:46.685Z,100568.00
2023-06-09T05:30:15.644Z,100577.00
2023-06-09T05:32:42.519Z,100564.00
2023-06-09T05:35:09.413Z,100575.00
2023-06-09T05:37:41.288Z,100570.00
2023-06-09T05:40:08.868Z,100571.00
2023-06-09T05:42:36.061Z,100575.00
2023-06-09T05:45:02.783Z,100580.00
2023-06-09T05:47:30.873Z,100572.00
2023-06-09T05:49:57.514Z,100590.00
2023-06-09T05:52:25.408Z,100589.00
2023-06-09T05:54:51.978Z,100583.00
2023-06-09T05:57:20.523Z,100591.00
2023-06-09T05:59:47.253Z,100582.00
2023-06-09T06:02:14.547Z,100579.00
2023-06-09T06:04:42.140Z,100588.00
2023-06-09T06:07:09.060Z,100583.00
2023-06-09T06:09:35.913Z,100588.00
2023-06-09T06:12:02.634Z,100579.00
2023-06-09T06:14:29.189Z,100592.00
2023-06-09T06:16:55.812Z,100586.00
2023-06-09T06:19:22.461Z,100590.00
2023-06-09T06:21:49.218Z,100590.00
2023-06-09T06:24:15.941Z,100582.00
2023-06-09T06:26:42.644Z,100589.00
2023-06-09T06:29:09.234Z,100597.00
2023-06-09T06:31:35.927Z,100599.00
2023-06-09T06:34:04.931Z,100602.00
2023-06-09T06:36:33.631Z,100604.00
2023-06-09T06:39:00.374Z,100610.00
2023-06-09T06:41:26.991Z,100596.00
2023-06-09T06:43:54.341Z,100606.00
2023-06-09T06:46:21.383Z,100604.00
2023-06-09T06:48:48.143Z,100599.00
2023-06-09T06:51:14.881Z,100596.00
2023-06-09T06:53:41.484Z,100597.00
2023-06-09T06:56:08.272Z,100601.00
2023-06-09T06:58:35.100Z,100600.00
2023-06-09T07:01:04.500Z,100601.00
2023-06-09T07:03:31.514Z,100600.00
2023-06-09T07:05:58.425Z,100602.00
2023-06-09T07:08:25.000Z,100603.00
2023-06-09T07:10:51.691Z,100602.00
2023-06-09T07:13:18.414Z,100608.00
2023-06-09T07:15:45.074Z,100622.00
2023-06-09T07:18:12.299Z,100617.00
2023-06-09T07:20:39.064Z,100621.00
2023-06-09T07:23:05.785Z,100620.00
2023-06-09T07:25:34.370Z,100618.00
2023-06-09T07:28:01.157Z,100615.00
2023-06-09T07:30:28.003Z,100613.00
2023-06-09T07:32:55.883Z,100611.00
2023-06-09T07:35:24.344Z,100604.00
2023-06-09T07:37:51.389Z,100612.00
2023-06-09T07:40:21.180Z,100608.00
2023-06-09T07:42:50.374Z,100612.00
2023-06-09T07:45:17.621Z,100608.00
2023-06-09T07:47:44.433Z,100608.00
2023-06-09T07:50:11.322Z,100609.00
2023-06-09T07:52:38.474Z,100616.00
2023-06-09T07:55:08.904Z,100615.00
2023-06-09T07:57:39.354Z,100625.00
2023-06-09T08:00:07.503Z,100610.00
2023-06-09T08:02:42.508Z,100615.00
2023-06-09T08:05:10.834Z,100625.00
2023-06-09T08:07:37.841Z,100608.00
2023-06-09T08:10:07.145Z,100614.00
2023-06-09T08:12:36.059Z,100605.00
2023-06-09T08:15:02.673Z,100607.00
2023-06-09T08:17:29.281Z,100610.00
2023-06-09T08:19:55.901Z,100612.00
2023-06-09T08:22:22.587Z,100613.00
2023-06-09T08:24:49.168Z,100612.00
2023-06-09T08:27:15.893Z,100606.00
2023-06-09T08:29:42.848Z,100610.00
2023-06-09T08:32:09.583Z,100609.00
2023-06-09T08:34:36.779Z,100605.00
2023-06-09T08:37:05.089Z,100615.00
2023-06-09T08:39:31.901Z,100610.00
2023-06-09T08:42:00.356Z,100606.00
2023-06-09T08:44:27.975Z,100609.00
2023-06-09T08:46:56.968Z,100609.00
2023-06-09T08:49:24.118Z,100604.00
2023-06-09T08:51:50.901Z,100607.00
2023-06-09T08:54:18.977Z,100602.00
2023-06-09T08:56:48.431Z,100610.00
2023-06-09T08:59:16.210Z,100599.00
2023-06-09T09:01:43.258Z,100611.00
2023-06-09T09:04:10.058Z,100606.00
2023-06-09T09:06:38.542Z,100607.00
2023-06-09T09:09:05.466Z,100611.00
2023-06-09T09:11:33.043Z,100603.00
2023-06-09T09:14:08.672Z,100611.00
2023-06-09T09:16:35.464Z,100604.00
2023-06-09T09:19:03.708Z,100599.00
2023-06-09T09:21:30.847Z,100599.00
2023-06-09T09:23:58.911Z,100601.00
2023-06-09T09:26:30.160Z,100609.00
2023-06-09T09:28:58.033Z,100597.00
2023-06-09T09:31:35.103Z,100608.00
2023-06-09T09:34:01.718Z,100609.00
2023-06-09T09:36:28.731Z,100610.00
2023-06-09T09:38:56.960Z,100613.00
2023-06-09T09:41:23.794Z,100603.00
2023-06-09T09:43:58.444Z,100611.00
2023-06-09T09:46:25.574Z,100606.00
2023-06-09T09:48:52.859Z,100611.00
2023-06-09T09:51:22.851Z,100611.00
2023-06-09T09:53:51.804Z,100602.00
2023-06-09T09:56:22.643Z,100602.00
2023-06-09T09:58:52.478Z,100606.00
2023-06-09T10:01:24.087Z,100605.00
2023-06-09T10:03:50.837Z,100600.00
2023-06-09T10:06:20.058Z,100604.00
2023-06-09T10:08:47.724Z,100597.00
2023-06-09T10:11:14.360Z,100596.00
2023-06-09T10:13:42.330Z,100600.00
2023-06-09T10:16:10.256Z,100583.00
2023-06-09T10:18:40.856Z,100592.00
2023-06-09T10:21:07.739Z,100587.00
2023-06-09T10:23:34.606Z,100592.00
2023-06-09T10:26:02.649Z,100590.00
2023-06-09T10:28:29.320Z,100592.00
2023-06-09T10:30:57.037Z,100591.00
2023-06-09T10:33:29.186Z,100583.00
2023-06-09T10:36:01.166Z,100587.00
2023-06-09T10:38:40.316Z,100583.00
2023-06-09T10:41:10.919Z,100583.00
2023-06-09T10:43:59.557Z,100576.00
2023-06-09T10:46:46.131Z,100588.00
2023-06-09T10:49:37.334Z,100579.00
2023-06-09T10:52:05.146Z,100571.00
2023-06-09T10:54:33.252Z,100577.00
2023-06-09T10:57:05.822Z,100566.00
2023-06-09T10:59:32.457Z,100573.00
2023-06-09T11:02:02.544Z,100573.00
2023-06-09T11:04:50.369Z,100570.00
2023-06-09T11:07:18.879Z,100567.00
2023-06-09T11:09:48.594Z,100573.00
2023-06-09T11:12:37.393Z,100563.00
2023-06-09T11:15:05.074Z,100556.00
2023-06-09T11:17:44.535Z,100555.00
2023-06-09T11:20:12.160Z,100552.00
2023-06-09T11:22:42.436Z,100541.00
2023-06-09T11:25:29.850Z,100546.00
2023-06-09T11:27:56.581Z,100545.00
2023-06-09T11:30:24.923Z,100547.00
2023-06-09T11:32:53.297Z,100536.00
2023-06-09T11:35:32.041Z,100532.00
2023-06-09T11:38:00.451Z,100532.00
2023-06-09T11:40:28.292Z,100536.00
2023-06-09T11:42:56.665Z,100530.00
2023-06-09T11:45:27.577Z,100537.00
2023-06-09T11:48:01.233Z,100534.00
2023-06-09T11:50:36.801Z,100526.00
2023-06-09T11:53:12.189Z,100520.00
2023-06-09T11:55:39.231Z,100522.00
2023-06-09T11:58:09.673Z,100520.00
2023-06-09T12:00:40.808Z,100523.00
2023-06-09T12:03:07.842Z,100525.00
2023-06-09T12:05:34.815Z,100526.00
2023-06-09T12:08:04.487Z,100533.00
2023-06-09T12:10:31.411Z,100523.00
2023-06-09T12:12:59.180Z,100514.00
2023-06-09T12:15:27.557Z,100515.00
2023-06-09T12:17:57.470Z,100518.00
2023-06-09T12:20:27.453Z,100512.00
2023-06-09T12:22:56.076Z,100518.00
2023-06-09T12:25:29.229Z,100511.00
2023-06-09T12:27:59.618Z,100506.00
2023-06-09T12:30:54.464Z,100503.00
2023-06-09T12:33:27.126Z,100512.00
2023-06-09T12:35:55.948Z,100512.00
2023-06-09T12:38:24.439Z,100513.00
2023-06-09T12:41:00.469Z,100516.00
2023-06-09T12:43:27.698Z,100513.00
2023-06-09T12:45:55.650Z,100506.00
2023-06-09T12:48:22.478Z,100513.00
2023-06-09T12:50:49.492Z,100514.00
2023-06-09T12:53:16.399Z,100514.00
2023-06-09T12:55:44.007Z,100521.00
2023-06-09T12:58:11.358Z,100515.00
2023-06-09T13:00:39.316Z,100509.00
2023-06-09T13:03:09.155Z,100497.00
2023-06-09T13:05:36.287Z,100505.00
2023-06-09T13:08:04.232Z,100500.00
2023-06-09T13:10:31.535Z,100502.00
2023-06-09T13:12:58.410Z,100502.00
2023-06-09T13:15:26.067Z,100487.00
2023-06-09T13:17:54.165Z,100487.00
2023-06-09T13:20:21.414Z,100478.00
2023-06-09T13:22:48.615Z,100496.00
2023-06-09T13:25:15.963Z,100490.00
2023-06-09T13:27:42.594Z,100491.00
2023-06-09T13:30:10.034Z,100476.00
2023-06-09T13:32:37.304Z,100476.00
2023-06-09T13:35:04.433Z,100481.00
2023-06-09T13:37:31.017Z,100481.00
2023-06-09T13:39:57.630Z,100474.00
2023-06-09T13:42:24.377Z,100475.00
2023-06-09T13:44:51.019Z,100480.00
2023-06-09T13:47:17.664Z,100478.00
2023-06-09T13:49:44.733Z,100476.00
2023-06-09T13:52:11.628Z,100479.00
2023-06-09T13:54:38.233Z,100478.00
2023-06-09T13:57:08.312Z,100480.00
2023-06-09T13:59:37.954Z,100473.00
2023-06-09T14:02:05.912Z,100474.00
2023-06-09T14:04:33.262Z,100469.00
2023-06-09T14:07:00.169Z,100477.00
2023-06-09T14:09:26.770Z,100475.00
2023-06-09T14:11:53.355Z,100479.00
2023-06-09T14:14:19.962Z,100469.00
2023-06-09T14:16:47.213Z,100469.00
2023-06-09T14:19:14.081Z,100473.00
2023-06-09T14:21:40.929Z,100474.00
2023-06-09T14:24:09.879Z,100462.00
2023-06-09T14:26:36.712Z,100459.00
2023-06-09T14:29:03.770Z,100464.00
2023-06-09T14:31:30.860Z,100457.00
2023-06-09T14:33:57.484Z,100456.00
2023-06-09T14:36:24.058Z,100459.00
2023-06-09T14:38:50.746Z,100451.00
2023-06-09T14:41:17.363Z,100451.00
2023-06-09T14:43:43.978Z,100440.00
2023-06-09T14:46:11.166Z,100449.00
2023-06-09T14:48:40.364Z,100439.00
2023-06-09T14:51:07.050Z,100441.00
2023-06-09T14:53:34.274Z,100434.00
2023-06-09T14:56:00.844Z,100437.00
2023-06-09T14:58:27.545Z,100442.00
2023-06-09T15:00:54.279Z,100445.00
2023-06-09T15:03:21.087Z,100439.00
2023-06-09T15:05:47.833Z,100440.00
2023-06-09T15:08:21.508Z,100444.00
2023-06-09T15:10:49.901Z,100442.00
2023-06-09T15:13:17.317Z,100447.00
2023-06-09T15:15:46.289Z,100440.00
2023-06-09T15:18:13.489Z,100445.00
2023-06-09T15:20:42.966Z,100445.00
2023-06-09T15:23:10.638Z,100438.00
2023-06-09T15:25:40.602Z,100437.00
2023-06-09T15:28:09.692Z,100432.00
2023-06-09T15:30:45.081Z,100436.00
2023-06-09T15:33:19.648Z,100435.00
2023-06-09T15:35:48.495Z,100441.00
2023-06-09T15:38:16.404Z,100430.00
2023-06-09T15:40:51.045Z,100429.00
2023-06-09T15:43:19.541Z,100427.00
2023-06-09T15:45:51.733Z,100416.00
2023-06-09T15:48:19.276Z,100427.00
2023-06-09T15:50:46.413Z,100430.00
2023-06-09T15:53:15.029Z,100424.00
2023-06-09T15:55:41.661Z,100439.00
2023-06-09T15:58:09.117Z,100441.00
2023-06-09T16:00:36.634Z,100432.00
2023-06-09T16:03:07.237Z,100430.00
2023-06-09T16:05:36.151Z,100428.00
2023-06-09T16:08:04.688Z,100434.00
2023-06-09T16:10:35.537Z,100446.00
2023-06-09T16:13:02.223Z,100436.00
2023-06-09T16:15:34.397Z,100439.00
2023-06-09T16:18:03.765Z,100450.00
2023-06-09T16:20:32.316Z,100444.00
2023-06-09T16:22:58.986Z,100456.00
2023-06-09T16:25:25.561Z,100444.00
2023-06-09T16:27:52.160Z,100453.00
2023-06-09T16:30:18.703Z,100453.00
2023-06-09T16:32:46.226Z,100451.00
2023-06-09T16:35:12.886Z,100463.00
2023-06-09T16:37:40.151Z,100460.00
2023-06-09T16:40:14.837Z,100462.00
2023-06-09T16:42:41.575Z,100455.00
2023-06-09T16:45:08.809Z,100456.00
2023-06-09T16:47:35.815Z,100458.00
2023-06-09T16:50:02.661Z,100448.00
2023-06-09T16:52:29.218Z,100458.00
2023-06-09T16:54:56.015Z,100454.00
2023-06-09T16:57:23.292Z,100455.00
2023-06-09T16:59:49.981Z,100459.00
2023-06-09T17:02:16.705Z,100443.00
2023-06-09T17:04:43.330Z,100459.00
2023-06-09T17:07:09.886Z,100450.00
2023-06-09T17:09:36.759Z,100458.00
2023-06-09T17:12:07.439Z,100462.00
2023-06-09T17:14:34.266Z,100461.00
2023-06-09T17:17:01.242Z,100468.00
2023-06-09T17:19:27.830Z,100465.00
2023-06-09T17:21:54.420Z,100464.00
2023-06-09T17:24:21.100Z,100479.00
2023-06-09T17:26:47.980Z,100480.00
2023-06-09T17:29:15.027Z,100485.00
2023-06-09T17:31:41.643Z,100487.00
2023-06-09T17:34:09.352Z,100490.00
2023-06-09T17:36:36.026Z,100496.00
2023-06-09T17:39:03.048Z,100496.00
2023-06-09T17:41:29.780Z,100503.00
2023-06-09T17:43:58.584Z,100494.00
2023-06-09T17:46:25.389Z,100505.00
2023-06-09T17:48:51.964Z,100507.00
2023-06-09T17:51:18.581Z,100500.00
2023-06-09T17:53:45.309Z,100497.00
2023-06-09T17:56:11.934Z,100506.00
2023-06-09T17:58:38.605Z,100510.00
2023-06-09T18:01:05.246Z,100529.00
2023-06-09T18:03:31.902Z,100521.00
2023-06-09T18:05:58.598Z,100515.00
2023-06-09T18:08:25.132Z,100531.00
2023-06-09T18:10:51.873Z,100531.00
2023-06-09T18:13:18.485Z,100538.00
2023-06-09T18:15:45.493Z,100532.00
2023-06-09T18:18:12.236Z,100533.00
2023-06-09T18:20:38.836Z,100536.00
2023-06-09T18:23:05.550Z,100524.00
2023-06-09T18:25:34.753Z,100534.00
2023-06-09T18:28:02.669Z,100534.00
2023-06-09T18:30:29.853Z,100534.00
2023-06-09T18:32:56.563Z,100535.00
2023-06-09T18:35:23.282Z,100536.00
2023-06-09T18:37:49.904Z,100539.00
2023-06-09T18:40:16.593Z,100529.00
2023-06-09T18:42:43.187Z,100528.00
2023-06-09T18:45:10.544Z,100540.00
2023-06-09T18:47:37.579Z,100545.00
2023-06-09T18:50:04.534Z,100542.00
2023-06-09T18:52:33.094Z,100534.00
2023-06-09T18:54:59.719Z,100541.00
2023-06-09T18:57:28.869Z,100552.00
2023-06-09T18:59:55.512Z,100547.00
2023-06-09T19:02:22.201Z,100551.00
2023-06-09T19:04:51.590Z,100539.00
2023-06-09T19:07:18.805Z,100567.00
2023-06-09T19:09:45.611Z,100566.00
2023-06-09T19:12:12.910Z,100562.00
2023-06-09T19:14:40.448Z,100571.00
2023-06-09T19:17:07.369Z,100573.00
2023-06-09T19:19:34.089Z,100568.00
2023-06-09T19:22:00.654Z,100568.00
2023-06-09T19:24:27.194Z,100581.00
2023-06-09T19:26:53.840Z,100578.00
2023-06-09T19:29:20.575Z,100574.00
2023-06-09T19:31:47.229Z,100592.00
2023-06-09T19:34:13.795Z,100582.00
2023-06-09T19:36:40.567Z,100586.00
2023-06-09T19:39:07.493Z,100592.00
2023-06-09T19:41:34.080Z,100594.00
2023-06-09T19:44:00.681Z,100597.00
2023-06-09T19:46:27.322Z,100591.00
2023-06-09T19:48:54.554Z,100600.00
2023-06-09T19:51:21.276Z,100582.00
2023-06-09T19:53:48.109Z,100580.00
2023-06-09T19:56:14.785Z,100588.00
2023-06-09T19:58:43.050Z,100600.00
2023-06-09T20:01:09.838Z,100612.00
2023-06-09T20:03:36.896Z,100608.00
2023-06-09T20:06:03.562Z,100601.00
2023-06-09T20:08:30.509Z,100598.00
2023-06-09T20:10:57.079Z,100594.00
2023-06-09T20:13:23.923Z,100595.00
2023-06-09T20:15:50.799Z,100604.00
2023-06-09T20:18:17.524Z,100608.00
2023-06-09T20:20:45.317Z,100601.00
2023-06-09T20:23:20.423Z,100606.00
2023-06-09T20:25:47.806Z,100612.00
2023-06-09T20:28:14.484Z,100607.00
2023-06-09T20:30:41.220Z,100606.00
2023-06-09T20:33:08.010Z,100604.00
2023-06-09T20:35:34.577Z,100615.00
2023-06-09T20:38:01.187Z,100620.00
2023-06-09T20:40:27.879Z,100626.00
2023-06-09T20:42:54.472Z,100613.00
2023-06-09T20:45:22.692Z,100625.00
2023-06-09T20:47:49.427Z,100625.00
2023-06-09T20:50:16.207Z,100625.00
2023-06-09T20:52:43.271Z,100634.00
2023-06-09T20:55:11.499Z,100622.00
2023-06-09T20:57:38.336Z,100633.00
2023-06-09T21:00:05.652Z,100626.00
2023-06-09T21:02:32.312Z,100624.00
2023-06-09T21:04:59.277Z,100626.00
2023-06-09T21:07:26.865Z,100614.00
2023-06-09T21:09:53.394Z,100631.00
2023-06-09T21:12:19.935Z,100632.00
2023-06-09T21:14:46.916Z,100630.00
2023-06-09T21:17:13.655Z,100635.00
2023-06-09T21:19:42.895Z,100629.00
2023-06-09T21:22:09.498Z,100629.00
2023-06-09T21:24:36.204Z,100625.00
2023-06-09T21:27:02.880Z,100628.00
2023-06-09T21:29:29.421Z,100637.00
2023-06-09T21:31:56.346Z,100632.00
2023-06-09T21:34:23.060Z,100630.00
2023-06-09T21:36:49.812Z,100635.00
2023-06-09T21:39:16.608Z,100635.00
2023-06-09T21:41:43.258Z,100636.00
2023-06-09T21:44:10.038Z,100636.00
2023-06-09T21:46:36.878Z,100639.00
2023-06-09T21:49:03.652Z,100645.00
2023-06-09T21:51:30.727Z,100633.00
2023-06-09T21:53:57.471Z,100628.00
2023-06-09T21:56:24.214Z,100637.00
2023-06-09T21:58:50.886Z,100627.00
2023-06-09T22:01:19.661Z,100631.00
2023-06-09T22:03:46.513Z,100632.00
2023-06-09T22:06:13.844Z,100622.00
2023-06-09T22:08:40.586Z,100637.00
2023-06-09T22:11:07.299Z,100637.00
2023-06-09T22:13:35.532Z,100644.00
2023-06-09T22:16:02.922Z,100633.00
2023-06-09T22:18:29.980Z,100635.00
2023-06-09T22:21:08.138Z,100638.00
2023-06-09T22:23:34.908Z,100632.00
2023-06-09T22:26:01.596Z,100639.00
2023-06-09T22:28:28.168Z,100644.00
2023-06-09T22:30:54.964Z,100640.00
2023-06-09T22:33:21.691Z,100644.00
2023-06-09T22:35:55.747Z,100619.00
2023-06-09T22:38:22.632Z,100632.00
2023-06-09T22:40:49.912Z,100636.00
2023-06-09T22:43:16.698Z,100632.00
2023-06-09T22:45:43.441Z,100622.00
2023-06-09T22:48:10.207Z,100625.00
2023-06-09T22:50:37.271Z,100632.00
2023-06-09T22:53:05.028Z,100627.00
2023-06-09T22:55:31.785Z,100626.00
2023-06-09T22:57:58.459Z,100626.00
2023-06-09T23:00:25.268Z,100631.00
2023-06-09T23:02:52.782Z,100623.00
2023-06-09T23:05:28.048Z,100627.00
2023-06-09T23:07:56.070Z,100631.00
2023-06-09T23:10:22.957Z,100617.00
2023-06-09T23:12:49.818Z,100620.00
2023-06-09T23:15:16.757Z,100629.00
2023-06-09T23:17:48.371Z,100629.00
2023-06-09T23:20:15.454Z,100625.00
2023-06-09T23:22:44.148Z,100618.00
2023-06-09T23:25:12.883Z,100629.00
2023-06-09T23:27:41.147Z,100632.00
2023-06-09T23:30:11.421Z,100625.00
2023-06-09T23:32:39.243Z,100622.00
2023-06-09T23:35:08.015Z,100625.00
2023-06-09T23:37:37.950Z,100622.00
2023-06-09T23:40:09.794Z,100626.00
2023-06-09T23:42:37.477Z,100614.00
2023-06-09T23:45:04.585Z,100630.00
2023-06-09T23:47:31.211Z,100616.00
2023-06-09T23:49:57.784Z,100625.00
2023-06-09T23:52:24.402Z,100632.00
2023-06-09T23:54:51.285Z,100619.00
2023-06-09T23:57:19.075Z,100619.00
2023-06-09T23:59:46.813Z,100619.00
